Terminal Aerodrome Forecast
Issued by NWS Sioux Falls, SD

Home | Current Version | Previous Version | Graphics & Text | Print | Product List | Glossary On
Versions: 1 2 3 4 5 6 7 8 9 10 11 12 13 14 15
000
FTUS43 KFSD 251134
TAFHON
TAF
KHON 251134Z 2512/2612 05014KT 2SM -SN OVC012
     FM251400 03014G22KT 3SM -SN OVC015
      TEMPO 2514/2516 1SM -SN
     FM251700 01016G24KT 6SM -SN OVC020
     FM260000 35013G19KT P6SM SCT020 BKN070
     FM260600 35012KT P6SM SCT020=

USA.gov is the U.S. government's official web portal to all federal, state and local government web resources and services.